sensor_id;sensor_type;location;lat;lon;timestamp;temperature;humidity
31455;DHT22;18084;53.028;8.834;2022-08-30T00:02:18;14.70;1.00
31455;DHT22;18084;53.028;8.834;2022-08-30T00:04:45;14.70;1.00
31455;DHT22;18084;53.028;8.834;2022-08-30T00:07:10;14.70;1.00
31455;DHT22;18084;53.028;8.834;2022-08-30T00:09:36;15.30;1.00
31455;DHT22;18084;53.028;8.834;2022-08-30T00:12:02;14.60;1.00
31455;DHT22;18084;53.028;8.834;2022-08-30T00:14:28;14.60;11.80
31455;DHT22;18084;53.028;8.834;2022-08-30T00:16:56;14.90;14.00
31455;DHT22;18084;53.028;8.834;2022-08-30T00:19:22;15.10;14.80
31455;DHT22;18084;53.028;8.834;2022-08-30T00:21:48;15.20;14.40
31455;DHT22;18084;53.028;8.834;2022-08-30T00:24:14;15.10;16.40
31455;DHT22;18084;53.028;8.834;2022-08-30T00:26:42;14.90;17.00
31455;DHT22;18084;53.028;8.834;2022-08-30T00:29:19;14.80;20.70
31455;DHT22;18084;53.028;8.834;2022-08-30T00:34:37;14.30;21.70
31455;DHT22;18084;53.028;8.834;2022-08-30T00:37:05;15.10;23.90
31455;DHT22;18084;53.028;8.834;2022-08-30T00:39:31;14.20;43.60
31455;DHT22;18084;53.028;8.834;2022-08-30T00:42:00;14.80;43.30
31455;DHT22;18084;53.028;8.834;2022-08-30T00:44:38;14.20;26.70
31455;DHT22;18084;53.028;8.834;2022-08-30T00:47:06;14.20;25.20
31455;DHT22;18084;53.028;8.834;2022-08-30T00:49:33;14.50;19.80
31455;DHT22;18084;53.028;8.834;2022-08-30T00:52:01;14.60;13.00
31455;DHT22;18084;53.028;8.834;2022-08-30T00:54:28;14.10;19.50
31455;DHT22;18084;53.028;8.834;2022-08-30T00:57:16;14.10;18.40
31455;DHT22;18084;53.028;8.834;2022-08-30T00:59:47;14.00;37.80
31455;DHT22;18084;53.028;8.834;2022-08-30T01:02:20;13.70;30.10
31455;DHT22;18084;53.028;8.834;2022-08-30T01:04:47;13.90;23.90
31455;DHT22;18084;53.028;8.834;2022-08-30T01:07:16;14.30;23.40
31455;DHT22;18084;53.028;8.834;2022-08-30T01:09:44;13.80;26.00
31455;DHT22;18084;53.028;8.834;2022-08-30T01:12:12;14.40;30.00
31455;DHT22;18084;53.028;8.834;2022-08-30T01:14:41;14.20;27.70
31455;DHT22;18084;53.028;8.834;2022-08-30T01:17:08;13.70;39.70
31455;DHT22;18084;53.028;8.834;2022-08-30T01:19:52;13.20;48.70
31455;DHT22;18084;53.028;8.834;2022-08-30T01:22:31;13.60;48.10
31455;DHT22;18084;53.028;8.834;2022-08-30T01:24:59;13.60;56.00
31455;DHT22;18084;53.028;8.834;2022-08-30T01:27:27;14.50;58.70
31455;DHT22;18084;53.028;8.834;2022-08-30T05:48:01;14.30;96.30
31455;DHT22;18084;53.028;8.834;2022-08-30T06:00:52;15.90;29.30
31455;DHT22;18084;53.028;8.834;2022-08-30T06:03:18;16.20;8.10
31455;DHT22;18084;53.028;8.834;2022-08-30T06:05:43;16.30;1.00
31455;DHT22;18084;53.028;8.834;2022-08-30T06:08:09;16.50;1.00
31455;DHT22;18084;53.028;8.834;2022-08-30T06:10:37;16.80;1.00
31455;DHT22;18084;53.028;8.834;2022-08-30T06:13:02;17.10;1.00
31455;DHT22;18084;53.028;8.834;2022-08-30T06:15:28;17.30;99.90
31455;DHT22;18084;53.028;8.834;2022-08-30T06:17:53;17.80;99.90
31455;DHT22;18084;53.028;8.834;2022-08-30T06:20:19;18.20;1.00
31455;DHT22;18084;53.028;8.834;2022-08-30T06:22:45;18.50;99.90
31455;DHT22;18084;53.028;8.834;2022-08-30T06:25:11;18.50;99.90
31455;DHT22;18084;53.028;8.834;2022-08-30T06:27:37;18.20;99.90
31455;DHT22;18084;53.028;8.834;2022-08-30T06:30:04;18.10;99.90
31455;DHT22;18084;53.028;8.834;2022-08-30T06:32:35;17.70;1.00
31455;DHT22;18084;53.028;8.834;2022-08-30T06:35:02;17.60;88.90
31455;DHT22;18084;53.028;8.834;2022-08-30T06:37:27;17.50;99.90
31455;DHT22;18084;53.028;8.834;2022-08-30T06:39:53;17.20;99.90
31455;DHT22;18084;53.028;8.834;2022-08-30T06:42:18;17.00;99.90
31455;DHT22;18084;53.028;8.834;2022-08-30T06:44:44;16.90;99.90
31455;DHT22;18084;53.028;8.834;2022-08-30T06:47:10;16.90;45.50
31455;DHT22;18084;53.028;8.834;2022-08-30T06:49:35;16.90;99.90
31455;DHT22;18084;53.028;8.834;2022-08-30T06:52:01;16.80;99.90
31455;DHT22;18084;53.028;8.834;2022-08-30T06:54:26;16.80;99.90
31455;DHT22;18084;53.028;8.834;2022-08-30T06:56:52;16.70;1.00
31455;DHT22;18084;53.028;8.834;2022-08-30T06:59:18;16.80;99.90
31455;DHT22;18084;53.028;8.834;2022-08-30T07:01:43;16.80;29.80
31455;DHT22;18084;53.028;8.834;2022-08-30T07:04:09;16.90;99.90
31455;DHT22;18084;53.028;8.834;2022-08-30T07:06:34;16.90;1.00
31455;DHT22;18084;53.028;8.834;2022-08-30T07:09:00;17.00;99.90
31455;DHT22;18084;53.028;8.834;2022-08-30T07:11:28;16.90;51.40
31455;DHT22;18084;53.028;8.834;2022-08-30T07:13:55;16.90;99.90
31455;DHT22;18084;53.028;8.834;2022-08-30T07:16:21;16.90;99.90
31455;DHT22;18084;53.028;8.834;2022-08-30T07:18:46;16.90;99.90
31455;DHT22;18084;53.028;8.834;2022-08-30T07:21:17;16.80;82.30
31455;DHT22;18084;53.028;8.834;2022-08-30T07:23:44;16.80;99.90
31455;DHT22;18084;53.028;8.834;2022-08-30T07:26:13;16.70;99.90
31455;DHT22;18084;53.028;8.834;2022-08-30T07:28:41;16.70;99.90
31455;DHT22;18084;53.028;8.834;2022-08-30T07:31:07;16.70;99.90
31455;DHT22;18084;53.028;8.834;2022-08-30T07:33:33;16.70;99.90
31455;DHT22;18084;53.028;8.834;2022-08-30T07:35:59;16.60;99.90
31455;DHT22;18084;53.028;8.834;2022-08-30T07:38:28;16.60;1.00
31455;DHT22;18084;53.028;8.834;2022-08-30T07:40:53;16.60;99.90
31455;DHT22;18084;53.028;8.834;2022-08-30T07:43:19;16.60;90.80
31455;DHT22;18084;53.028;8.834;2022-08-30T07:45:45;16.60;1.00
31455;DHT22;18084;53.028;8.834;2022-08-30T07:48:10;16.60;99.90
31455;DHT22;18084;53.028;8.834;2022-08-30T07:50:41;16.60;99.90
31455;DHT22;18084;53.028;8.834;2022-08-30T07:53:07;16.60;99.90
31455;DHT22;18084;53.028;8.834;2022-08-30T07:55:32;16.50;1.00
31455;DHT22;18084;53.028;8.834;2022-08-30T07:57:58;16.60;99.90
31455;DHT22;18084;53.028;8.834;2022-08-30T08:00:23;16.70;99.90
31455;DHT22;18084;53.028;8.834;2022-08-30T08:02:49;17.10;1.00
31455;DHT22;18084;53.028;8.834;2022-08-30T08:05:14;17.50;33.00
31455;DHT22;18084;53.028;8.834;2022-08-30T08:07:40;19.10;99.90
31455;DHT22;18084;53.028;8.834;2022-08-30T08:10:06;20.10;1.00
31455;DHT22;18084;53.028;8.834;2022-08-30T08:12:32;20.20;1.00
31455;DHT22;18084;53.028;8.834;2022-08-30T08:14:57;20.80;99.90
31455;DHT22;18084;53.028;8.834;2022-08-30T08:17:23;21.30;99.90
31455;DHT22;18084;53.028;8.834;2022-08-30T08:19:48;21.10;99.90
31455;DHT22;18084;53.028;8.834;2022-08-30T08:22:14;20.50;99.90
31455;DHT22;18084;53.028;8.834;2022-08-30T08:24:40;20.20;99.90
31455;DHT22;18084;53.028;8.834;2022-08-30T08:27:05;19.90;99.90
31455;DHT22;18084;53.028;8.834;2022-08-30T08:29:31;20.90;99.90
31455;DHT22;18084;53.028;8.834;2022-08-30T08:31:57;21.20;99.90
31455;DHT22;18084;53.028;8.834;2022-08-30T08:34:24;21.60;99.90
31455;DHT22;18084;53.028;8.834;2022-08-30T08:36:50;22.60;99.90
31455;DHT22;18084;53.028;8.834;2022-08-30T08:39:16;22.40;99.90
31455;DHT22;18084;53.028;8.834;2022-08-30T08:41:47;21.70;99.90
31455;DHT22;18084;53.028;8.834;2022-08-30T08:49:38;22.30;99.90
31455;DHT22;18084;53.028;8.834;2022-08-30T08:52:06;23.00;99.90
31455;DHT22;18084;53.028;8.834;2022-08-30T08:54:58;24.00;99.90
31455;DHT22;18084;53.028;8.834;2022-08-30T08:57:34;24.40;99.90
31455;DHT22;18084;53.028;8.834;2022-08-30T09:00:02;25.50;99.90
31455;DHT22;18084;53.028;8.834;2022-08-30T09:02:33;25.70;99.90
31455;DHT22;18084;53.028;8.834;2022-08-30T09:05:01;25.90;99.90
31455;DHT22;18084;53.028;8.834;2022-08-30T09:07:33;25.50;99.90
31455;DHT22;18084;53.028;8.834;2022-08-30T09:09:59;25.80;99.90
31455;DHT22;18084;53.028;8.834;2022-08-30T09:12:26;25.30;99.90
31455;DHT22;18084;53.028;8.834;2022-08-30T09:15:03;25.20;99.90
31455;DHT22;18084;53.028;8.834;2022-08-30T09:17:28;25.00;99.90
31455;DHT22;18084;53.028;8.834;2022-08-30T09:22:21;25.80;99.90
31455;DHT22;18084;53.028;8.834;2022-08-30T09:27:31;25.90;99.90
31455;DHT22;18084;53.028;8.834;2022-08-30T09:30:07;25.30;99.90
31455;DHT22;18084;53.028;8.834;2022-08-30T09:32:37;24.30;99.90
31455;DHT22;18084;53.028;8.834;2022-08-30T09:35:09;23.40;99.90
31455;DHT22;18084;53.028;8.834;2022-08-30T09:37:43;22.80;99.90
31455;DHT22;18084;53.028;8.834;2022-08-30T09:40:19;22.70;99.90
31455;DHT22;18084;53.028;8.834;2022-08-30T09:45:41;21.80;99.90
31455;DHT22;18084;53.028;8.834;2022-08-30T09:54:02;21.60;99.90
31455;DHT22;18084;53.028;8.834;2022-08-30T09:56:42;22.00;99.90
31455;DHT22;18084;53.028;8.834;2022-08-30T10:01:54;21.60;99.90
31455;DHT22;18084;53.028;8.834;2022-08-30T10:04:46;22.00;99.90
31455;DHT22;18084;53.028;8.834;2022-08-30T10:07:33;21.30;99.90
31455;DHT22;18084;53.028;8.834;2022-08-30T10:10:27;21.40;99.90
31455;DHT22;18084;53.028;8.834;2022-08-30T10:13:21;21.60;99.90
31455;DHT22;18084;53.028;8.834;2022-08-30T10:15:59;22.00;99.90
31455;DHT22;18084;53.028;8.834;2022-08-30T10:18:42;22.60;99.90
31455;DHT22;18084;53.028;8.834;2022-08-30T10:21:31;22.40;99.90
31455;DHT22;18084;53.028;8.834;2022-08-30T10:24:04;22.70;99.90
31455;DHT22;18084;53.028;8.834;2022-08-30T10:29:04;23.60;99.90
31455;DHT22;18084;53.028;8.834;2022-08-30T10:34:36;23.70;99.90
31455;DHT22;18084;53.028;8.834;2022-08-30T10:37:11;23.30;99.90
31455;DHT22;18084;53.028;8.834;2022-08-30T10:39:45;23.60;99.90
31455;DHT22;18084;53.028;8.834;2022-08-30T10:44:54;22.90;99.90
31455;DHT22;18084;53.028;8.834;2022-08-30T10:47:39;22.90;99.90
31455;DHT22;18084;53.028;8.834;2022-08-30T10:50:22;22.80;99.90
31455;DHT22;18084;53.028;8.834;2022-08-30T10:55:27;23.70;99.90
31455;DHT22;18084;53.028;8.834;2022-08-30T10:57:58;23.90;99.90
31455;DHT22;18084;53.028;8.834;2022-08-30T11:00:53;24.40;99.90
31455;DHT22;18084;53.028;8.834;2022-08-30T11:03:29;24.50;99.90
31455;DHT22;18084;53.028;8.834;2022-08-30T11:06:17;24.10;99.90
31455;DHT22;18084;53.028;8.834;2022-08-30T11:09:18;24.00;99.90
31455;DHT22;18084;53.028;8.834;2022-08-30T11:14:26;23.20;99.90
31455;DHT22;18084;53.028;8.834;2022-08-30T11:16:54;23.40;99.90
31455;DHT22;18084;53.028;8.834;2022-08-30T11:19:25;23.60;99.90
31455;DHT22;18084;53.028;8.834;2022-08-30T11:21:52;23.60;99.90
31455;DHT22;18084;53.028;8.834;2022-08-30T11:25:15;23.90;99.90
31455;DHT22;18084;53.028;8.834;2022-08-30T11:27:51;23.10;99.90
31455;DHT22;18084;53.028;8.834;2022-08-30T11:35:43;23.50;99.90
31455;DHT22;18084;53.028;8.834;2022-08-30T11:41:13;23.90;99.90
31455;DHT22;18084;53.028;8.834;2022-08-30T11:43:53;24.20;99.90
31455;DHT22;18084;53.028;8.834;2022-08-30T12:02:58;23.20;99.90
31455;DHT22;18084;53.028;8.834;2022-08-30T12:16:11;23.40;99.90
31455;DHT22;18084;53.028;8.834;2022-08-30T12:18:47;23.70;99.90
31455;DHT22;18084;53.028;8.834;2022-08-30T12:24:19;24.40;99.90
31455;DHT22;18084;53.028;8.834;2022-08-30T12:26:48;24.20;99.90
31455;DHT22;18084;53.028;8.834;2022-08-30T12:29:23;24.20;99.90
31455;DHT22;18084;53.028;8.834;2022-08-30T12:32:01;23.80;99.90
31455;DHT22;18084;53.028;8.834;2022-08-30T12:34:32;23.50;99.90
31455;DHT22;18084;53.028;8.834;2022-08-30T12:37:23;23.50;99.90
31455;DHT22;18084;53.028;8.834;2022-08-30T12:40:09;23.10;99.90
31455;DHT22;18084;53.028;8.834;2022-08-30T12:43:02;23.00;99.90
31455;DHT22;18084;53.028;8.834;2022-08-30T12:45:35;23.10;99.90
31455;DHT22;18084;53.028;8.834;2022-08-30T12:48:05;23.20;99.90
31455;DHT22;18084;53.028;8.834;2022-08-30T12:50:52;23.50;99.90
31455;DHT22;18084;53.028;8.834;2022-08-30T12:53:31;24.10;99.90
31455;DHT22;18084;53.028;8.834;2022-08-30T12:56:03;24.00;99.90
31455;DHT22;18084;53.028;8.834;2022-08-30T12:58:38;23.70;99.90
31455;DHT22;18084;53.028;8.834;2022-08-30T13:04:20;25.10;99.90
31455;DHT22;18084;53.028;8.834;2022-08-30T13:06:57;24.00;99.90
31455;DHT22;18084;53.028;8.834;2022-08-30T13:09:29;24.40;99.90
31455;DHT22;18084;53.028;8.834;2022-08-30T13:11:58;24.20;99.90
31455;DHT22;18084;53.028;8.834;2022-08-30T13:14:42;24.50;99.90
31455;DHT22;18084;53.028;8.834;2022-08-30T13:17:25;24.00;99.90
31455;DHT22;18084;53.028;8.834;2022-08-30T13:23:00;23.60;99.90
31455;DHT22;18084;53.028;8.834;2022-08-30T13:25:26;23.40;99.90
31455;DHT22;18084;53.028;8.834;2022-08-30T13:27:53;23.70;99.90
31455;DHT22;18084;53.028;8.834;2022-08-30T13:30:30;23.80;99.90
31455;DHT22;18084;53.028;8.834;2022-08-30T13:32:56;24.00;99.90
31455;DHT22;18084;53.028;8.834;2022-08-30T13:35:22;23.90;99.90
31455;DHT22;18084;53.028;8.834;2022-08-30T13:37:47;23.60;99.90
31455;DHT22;18084;53.028;8.834;2022-08-30T13:40:14;23.50;99.90
31455;DHT22;18084;53.028;8.834;2022-08-30T13:42:40;23.30;99.90
31455;DHT22;18084;53.028;8.834;2022-08-30T13:45:08;23.80;99.90
31455;DHT22;18084;53.028;8.834;2022-08-30T13:47:34;23.90;99.90
31455;DHT22;18084;53.028;8.834;2022-08-30T13:49:59;24.10;99.90
31455;DHT22;18084;53.028;8.834;2022-08-30T13:52:25;24.00;99.90
31455;DHT22;18084;53.028;8.834;2022-08-30T13:54:52;24.20;99.90
31455;DHT22;18084;53.028;8.834;2022-08-30T13:57:20;24.20;99.90
31455;DHT22;18084;53.028;8.834;2022-08-30T13:59:46;23.90;99.90
31455;DHT22;18084;53.028;8.834;2022-08-30T14:02:12;24.20;99.90
31455;DHT22;18084;53.028;8.834;2022-08-30T14:04:38;24.00;99.90
31455;DHT22;18084;53.028;8.834;2022-08-30T14:07:04;23.80;99.90
31455;DHT22;18084;53.028;8.834;2022-08-30T14:09:29;23.90;99.90
31455;DHT22;18084;53.028;8.834;2022-08-30T14:11:55;23.70;99.90
31455;DHT22;18084;53.028;8.834;2022-08-30T14:14:21;23.90;99.90
31455;DHT22;18084;53.028;8.834;2022-08-30T14:16:46;24.00;99.90
31455;DHT22;18084;53.028;8.834;2022-08-30T14:19:14;24.20;99.90
31455;DHT22;18084;53.028;8.834;2022-08-30T14:21:40;24.30;99.90
31455;DHT22;18084;53.028;8.834;2022-08-30T14:24:11;24.30;99.90
31455;DHT22;18084;53.028;8.834;2022-08-30T14:26:43;24.40;99.90
31455;DHT22;18084;53.028;8.834;2022-08-30T14:29:11;24.40;99.90
31455;DHT22;18084;53.028;8.834;2022-08-30T14:31:41;24.50;99.90
31455;DHT22;18084;53.028;8.834;2022-08-30T14:34:09;24.60;99.90
31455;DHT22;18084;53.028;8.834;2022-08-30T14:36:40;24.60;99.90
31455;DHT22;18084;53.028;8.834;2022-08-30T14:39:07;24.30;99.90
31455;DHT22;18084;53.028;8.834;2022-08-30T14:41:34;24.60;99.90
31455;DHT22;18084;53.028;8.834;2022-08-30T14:44:10;24.60;99.90
31455;DHT22;18084;53.028;8.834;2022-08-30T14:46:47;24.50;99.90
31455;DHT22;18084;53.028;8.834;2022-08-30T14:49:15;24.40;99.90
31455;DHT22;18084;53.028;8.834;2022-08-30T14:51:42;24.10;99.90
31455;DHT22;18084;53.028;8.834;2022-08-30T14:54:10;24.00;99.90
31455;DHT22;18084;53.028;8.834;2022-08-30T14:56:38;23.80;99.90
31455;DHT22;18084;53.028;8.834;2022-08-30T14:59:05;23.80;99.90
31455;DHT22;18084;53.028;8.834;2022-08-30T15:01:33;23.80;99.90
31455;DHT22;18084;53.028;8.834;2022-08-30T15:04:00;24.10;99.90
31455;DHT22;18084;53.028;8.834;2022-08-30T15:06:26;24.20;99.90
31455;DHT22;18084;53.028;8.834;2022-08-30T15:08:53;24.20;99.90
31455;DHT22;18084;53.028;8.834;2022-08-30T15:11:20;23.50;99.90
31455;DHT22;18084;53.028;8.834;2022-08-30T15:13:47;23.60;99.90
31455;DHT22;18084;53.028;8.834;2022-08-30T15:16:24;23.50;99.90
31455;DHT22;18084;53.028;8.834;2022-08-30T15:19:10;23.50;99.90
31455;DHT22;18084;53.028;8.834;2022-08-30T15:21:39;23.20;99.90
31455;DHT22;18084;53.028;8.834;2022-08-30T15:24:09;22.70;99.90
31455;DHT22;18084;53.028;8.834;2022-08-30T15:26:44;22.60;99.90
31455;DHT22;18084;53.028;8.834;2022-08-30T15:29:12;23.00;99.90
31455;DHT22;18084;53.028;8.834;2022-08-30T15:31:50;22.80;99.90
31455;DHT22;18084;53.028;8.834;2022-08-30T15:34:18;23.10;99.90
31455;DHT22;18084;53.028;8.834;2022-08-30T15:36:47;23.00;99.90
31455;DHT22;18084;53.028;8.834;2022-08-30T15:39:14;22.20;99.90
31455;DHT22;18084;53.028;8.834;2022-08-30T15:41:43;23.10;99.90
31455;DHT22;18084;53.028;8.834;2022-08-30T15:44:09;23.10;99.90
31455;DHT22;18084;53.028;8.834;2022-08-30T15:46:38;23.20;99.90
31455;DHT22;18084;53.028;8.834;2022-08-30T15:49:18;23.10;99.90
31455;DHT22;18084;53.028;8.834;2022-08-30T15:51:46;23.00;99.90
31455;DHT22;18084;53.028;8.834;2022-08-30T15:54:16;22.80;99.90
31455;DHT22;18084;53.028;8.834;2022-08-30T15:56:48;22.80;99.90
31455;DHT22;18084;53.028;8.834;2022-08-30T15:59:14;22.80;99.90
31455;DHT22;18084;53.028;8.834;2022-08-30T16:01:40;22.60;99.90
31455;DHT22;18084;53.028;8.834;2022-08-30T16:04:06;22.70;99.90
31455;DHT22;18084;53.028;8.834;2022-08-30T16:06:34;22.60;99.90
31455;DHT22;18084;53.028;8.834;2022-08-30T16:09:04;22.40;99.90
31455;DHT22;18084;53.028;8.834;2022-08-30T16:11:30;22.40;99.90
31455;DHT22;18084;53.028;8.834;2022-08-30T16:13:56;22.90;99.90
31455;DHT22;18084;53.028;8.834;2022-08-30T16:16:22;22.80;99.90
31455;DHT22;18084;53.028;8.834;2022-08-30T16:18:51;23.30;99.90
31455;DHT22;18084;53.028;8.834;2022-08-30T16:21:20;23.20;99.90
31455;DHT22;18084;53.028;8.834;2022-08-30T16:23:46;23.10;99.90
31455;DHT22;18084;53.028;8.834;2022-08-30T16:26:14;23.20;99.90
31455;DHT22;18084;53.028;8.834;2022-08-30T16:28:41;23.00;99.90
31455;DHT22;18084;53.028;8.834;2022-08-30T16:31:07;22.70;99.90
31455;DHT22;18084;53.028;8.834;2022-08-30T16:33:34;22.90;99.90
31455;DHT22;18084;53.028;8.834;2022-08-30T16:36:00;22.50;99.90
31455;DHT22;18084;53.028;8.834;2022-08-30T16:38:26;22.40;99.90
31455;DHT22;18084;53.028;8.834;2022-08-30T16:40:52;22.20;99.90
31455;DHT22;18084;53.028;8.834;2022-08-30T16:43:18;22.00;99.90
31455;DHT22;18084;53.028;8.834;2022-08-30T16:45:45;21.90;99.90
31455;DHT22;18084;53.028;8.834;2022-08-30T16:48:14;22.00;99.90
31455;DHT22;18084;53.028;8.834;2022-08-30T16:50:44;21.50;99.90
31455;DHT22;18084;53.028;8.834;2022-08-30T16:53:11;21.50;99.90
31455;DHT22;18084;53.028;8.834;2022-08-30T16:55:38;21.50;99.90
31455;DHT22;18084;53.028;8.834;2022-08-30T16:58:07;21.50;99.90
31455;DHT22;18084;53.028;8.834;2022-08-30T17:00:34;21.60;99.90
31455;DHT22;18084;53.028;8.834;2022-08-30T17:03:05;22.00;99.90
31455;DHT22;18084;53.028;8.834;2022-08-30T17:05:34;21.90;99.90
31455;DHT22;18084;53.028;8.834;2022-08-30T17:08:00;22.00;99.90
31455;DHT22;18084;53.028;8.834;2022-08-30T17:10:33;22.10;99.90
31455;DHT22;18084;53.028;8.834;2022-08-30T17:13:00;22.00;99.90
31455;DHT22;18084;53.028;8.834;2022-08-30T17:15:27;22.00;99.90
31455;DHT22;18084;53.028;8.834;2022-08-30T17:17:53;20.70;99.90
31455;DHT22;18084;53.028;8.834;2022-08-30T17:20:19;21.60;99.90
31455;DHT22;18084;53.028;8.834;2022-08-30T17:22:45;21.50;99.90
31455;DHT22;18084;53.028;8.834;2022-08-30T17:25:11;21.80;99.90
31455;DHT22;18084;53.028;8.834;2022-08-30T17:27:43;21.40;99.90
31455;DHT22;18084;53.028;8.834;2022-08-30T17:30:10;21.40;99.90
31455;DHT22;18084;53.028;8.834;2022-08-30T17:32:35;21.30;99.90
31455;DHT22;18084;53.028;8.834;2022-08-30T17:35:01;21.40;99.90
31455;DHT22;18084;53.028;8.834;2022-08-30T17:37:27;21.20;99.90
31455;DHT22;18084;53.028;8.834;2022-08-30T17:39:53;21.40;99.90
31455;DHT22;18084;53.028;8.834;2022-08-30T17:42:18;21.00;99.90
31455;DHT22;18084;53.028;8.834;2022-08-30T17:44:44;20.90;99.90
31455;DHT22;18084;53.028;8.834;2022-08-30T17:47:11;20.70;99.90
31455;DHT22;18084;53.028;8.834;2022-08-30T17:49:39;20.80;99.90
31455;DHT22;18084;53.028;8.834;2022-08-30T17:52:25;20.70;99.90
31455;DHT22;18084;53.028;8.834;2022-08-30T17:54:59;20.60;99.90
31455;DHT22;18084;53.028;8.834;2022-08-30T17:57:30;20.60;99.90
31455;DHT22;18084;53.028;8.834;2022-08-30T17:59:56;20.50;99.90
31455;DHT22;18084;53.028;8.834;2022-08-30T18:07:26;20.40;99.90
31455;DHT22;18084;53.028;8.834;2022-08-30T18:09:52;20.30;99.90
31455;DHT22;18084;53.028;8.834;2022-08-30T18:12:18;20.40;99.90
31455;DHT22;18084;53.028;8.834;2022-08-30T18:14:43;20.20;99.90
31455;DHT22;18084;53.028;8.834;2022-08-30T18:17:11;20.20;99.90
31455;DHT22;18084;53.028;8.834;2022-08-30T18:19:37;20.10;99.90
31455;DHT22;18084;53.028;8.834;2022-08-30T18:22:03;20.10;99.90
31455;DHT22;18084;53.028;8.834;2022-08-30T18:24:29;20.00;99.90
31455;DHT22;18084;53.028;8.834;2022-08-30T18:26:55;20.00;99.90
31455;DHT22;18084;53.028;8.834;2022-08-30T18:29:21;20.00;99.90
31455;DHT22;18084;53.028;8.834;2022-08-30T18:31:47;19.90;99.90
31455;DHT22;18084;53.028;8.834;2022-08-30T18:34:12;19.80;99.90
31455;DHT22;18084;53.028;8.834;2022-08-30T18:36:38;20.20;99.90
31455;DHT22;18084;53.028;8.834;2022-08-30T18:39:04;19.70;99.90
31455;DHT22;18084;53.028;8.834;2022-08-30T18:41:29;19.80;99.90
31455;DHT22;18084;53.028;8.834;2022-08-30T18:43:55;19.60;99.90
31455;DHT22;18084;53.028;8.834;2022-08-30T18:46:20;19.50;99.90
31455;DHT22;18084;53.028;8.834;2022-08-30T18:48:47;20.30;99.90
31455;DHT22;18084;53.028;8.834;2022-08-30T18:51:15;19.50;99.90
31455;DHT22;18084;53.028;8.834;2022-08-30T19:04:00;19.20;99.90
31455;DHT22;18084;53.028;8.834;2022-08-30T19:06:26;19.10;99.90
31455;DHT22;18084;53.028;8.834;2022-08-30T19:08:52;19.60;99.90
31455;DHT22;18084;53.028;8.834;2022-08-30T19:11:18;19.00;99.90
31455;DHT22;18084;53.028;8.834;2022-08-30T19:13:43;19.70;99.90
31455;DHT22;18084;53.028;8.834;2022-08-30T19:16:09;18.80;99.90
31455;DHT22;18084;53.028;8.834;2022-08-30T19:18:34;18.90;99.90
31455;DHT22;18084;53.028;8.834;2022-08-30T19:21:01;20.10;99.90
31455;DHT22;18084;53.028;8.834;2022-08-30T19:23:29;19.90;99.90
31455;DHT22;18084;53.028;8.834;2022-08-30T19:25:55;18.70;99.90
31455;DHT22;18084;53.028;8.834;2022-08-30T19:28:21;19.00;99.90
31455;DHT22;18084;53.028;8.834;2022-08-30T19:30:47;19.30;99.90
31455;DHT22;18084;53.028;8.834;2022-08-30T19:33:12;18.60;99.90
31455;DHT22;18084;53.028;8.834;2022-08-30T19:35:41;17.90;99.90
31455;DHT22;18084;53.028;8.834;2022-08-30T19:38:07;18.40;99.90
31455;DHT22;18084;53.028;8.834;2022-08-30T19:40:32;17.90;99.90
31455;DHT22;18084;53.028;8.834;2022-08-30T19:42:58;18.20;99.90
31455;DHT22;18084;53.028;8.834;2022-08-30T19:45:27;18.90;99.90
31455;DHT22;18084;53.028;8.834;2022-08-30T19:47:52;18.20;99.90
31455;DHT22;18084;53.028;8.834;2022-08-30T19:50:19;18.20;99.90
31455;DHT22;18084;53.028;8.834;2022-08-30T19:52:48;18.20;99.90
31455;DHT22;18084;53.028;8.834;2022-08-30T19:55:16;18.60;99.90
31455;DHT22;18084;53.028;8.834;2022-08-30T19:57:45;18.00;99.90
31455;DHT22;18084;53.028;8.834;2022-08-30T20:20:54;17.90;99.90
31455;DHT22;18084;53.028;8.834;2022-08-30T20:27:00;17.80;99.90
31455;DHT22;18084;53.028;8.834;2022-08-30T20:30:10;17.70;99.90
31455;DHT22;18084;53.028;8.834;2022-08-30T20:32:40;17.50;99.90
31455;DHT22;18084;53.028;8.834;2022-08-30T20:35:39;17.40;99.90
31455;DHT22;18084;53.028;8.834;2022-08-30T20:45:56;17.20;99.90
31455;DHT22;18084;53.028;8.834;2022-08-30T20:48:24;17.20;99.90
31455;DHT22;18084;53.028;8.834;2022-08-30T20:50:55;17.10;99.90
31455;DHT22;18084;53.028;8.834;2022-08-30T20:53:29;17.00;99.90
31455;DHT22;18084;53.028;8.834;2022-08-30T20:55:58;16.70;99.90
31455;DHT22;18084;53.028;8.834;2022-08-30T20:58:24;17.20;99.90
31455;DHT22;18084;53.028;8.834;2022-08-30T21:01:06;16.80;99.90
31455;DHT22;18084;53.028;8.834;2022-08-30T21:03:33;16.80;99.90
31455;DHT22;18084;53.028;8.834;2022-08-30T21:06:02;17.20;99.90
31455;DHT22;18084;53.028;8.834;2022-08-30T21:08:32;16.70;99.90
31455;DHT22;18084;53.028;8.834;2022-08-30T21:11:00;16.60;99.90
31455;DHT22;18084;53.028;8.834;2022-08-30T21:13:29;16.60;99.90
31455;DHT22;18084;53.028;8.834;2022-08-30T21:16:15;16.60;99.90
31455;DHT22;18084;53.028;8.834;2022-08-30T21:18:44;16.40;99.90
31455;DHT22;18084;53.028;8.834;2022-08-30T21:21:15;16.40;99.90
31455;DHT22;18084;53.028;8.834;2022-08-30T21:23:48;16.20;99.90
31455;DHT22;18084;53.028;8.834;2022-08-30T21:26:20;16.80;99.90
31455;DHT22;18084;53.028;8.834;2022-08-30T21:28:51;16.30;99.90
31455;DHT22;18084;53.028;8.834;2022-08-30T21:31:19;16.30;99.90
31455;DHT22;18084;53.028;8.834;2022-08-30T21:33:49;16.70;99.90
31455;DHT22;18084;53.028;8.834;2022-08-30T21:36:18;16.40;99.90
31455;DHT22;18084;53.028;8.834;2022-08-30T21:39:04;16.50;99.90
31455;DHT22;18084;53.028;8.834;2022-08-30T21:41:30;16.30;99.90
31455;DHT22;18084;53.028;8.834;2022-08-30T21:43:58;16.30;99.90
31455;DHT22;18084;53.028;8.834;2022-08-30T21:46:25;16.60;99.90
31455;DHT22;18084;53.028;8.834;2022-08-30T21:48:55;16.40;99.90
31455;DHT22;18084;53.028;8.834;2022-08-30T21:51:21;16.30;99.90
31455;DHT22;18084;53.028;8.834;2022-08-30T21:53:46;16.80;99.90
31455;DHT22;18084;53.028;8.834;2022-08-30T21:56:21;16.80;99.90
31455;DHT22;18084;53.028;8.834;2022-08-30T21:58:47;16.60;99.90
31455;DHT22;18084;53.028;8.834;2022-08-30T22:01:17;16.70;99.90
31455;DHT22;18084;53.028;8.834;2022-08-30T22:03:46;16.40;99.90
31455;DHT22;18084;53.028;8.834;2022-08-30T22:06:18;16.30;99.90
31455;DHT22;18084;53.028;8.834;2022-08-30T22:08:47;16.50;99.90
31455;DHT22;18084;53.028;8.834;2022-08-30T22:11:16;16.20;99.90
31455;DHT22;18084;53.028;8.834;2022-08-30T22:13:47;15.20;99.90
31455;DHT22;18084;53.028;8.834;2022-08-30T22:16:13;16.10;99.90
31455;DHT22;18084;53.028;8.834;2022-08-30T22:18:42;16.30;99.90
31455;DHT22;18084;53.028;8.834;2022-08-30T22:21:09;16.00;99.90
31455;DHT22;18084;53.028;8.834;2022-08-30T22:23:38;15.90;99.90
31455;DHT22;18084;53.028;8.834;2022-08-30T22:26:06;15.80;99.90
31455;DHT22;18084;53.028;8.834;2022-08-30T22:28:32;16.30;99.90